Time;durP1;ratioP1;P1;durP2;ratioP2;P2;SDS_P1;SDS_P2;PMS_P1;PMS_P2;Temp;Humidity;BMP_temperature;BMP_pressure;BME280_temperature;BME280_humidity;BME280_pressure;Samples;Min_cycle;Max_cycle;Signal;HPM_P1;HPM_P2
2023/07/03 00:00:23;;;;;;;8.10;7.18;;;;;;;19.35;75.47;96492.75;5049122;28;20612;-58
2023/07/03 00:02:52;;;;;;;8.50;7.43;;;;;;;19.36;73.53;96489.03;5047255;28;20203;-59
2023/07/03 00:05:19;;;;;;;7.57;6.78;;;;;;;19.39;73.87;96485.94;5048120;28;20213;-59
2023/07/03 00:07:46;;;;;;;8.73;7.28;;;;;;;19.43;76.04;96489.09;5048758;28;20552;-59
2023/07/03 00:10:13;;;;;;;8.20;7.38;;;;;;;19.43;78.58;96487.22;5045562;28;20282;-58
2023/07/03 00:12:39;;;;;;;8.90;7.13;;;;;;;19.45;77.14;96485.16;5046830;28;20223;-58
2023/07/03 00:15:07;;;;;;;7.85;6.93;;;;;;;19.47;68.42;96488.50;5046651;28;20199;-60
2023/07/03 00:17:37;;;;;;;7.10;6.43;;;;;;;19.48;69.18;96486.63;5047179;28;20210;-59
2023/07/03 00:20:04;;;;;;;7.47;6.60;;;;;;;19.49;70.01;96486.41;5041683;28;20265;-58
2023/07/03 00:22:30;;;;;;;7.65;6.65;;;;;;;19.50;68.95;96492.63;5040109;28;20218;-59
2023/07/03 00:24:59;;;;;;;9.20;6.75;;;;;;;19.51;68.19;96489.75;5055821;28;20191;-58
2023/07/03 00:27:26;;;;;;;7.60;6.80;;;;;;;19.55;68.56;96485.63;5054888;28;20203;-58
2023/07/03 00:29:52;;;;;;;8.23;6.88;;;;;;;19.56;68.61;96486.44;5043078;28;20231;-58
2023/07/03 00:32:21;;;;;;;8.43;6.75;;;;;;;19.54;68.53;96483.97;5053928;28;20322;-59
2023/07/03 00:34:50;;;;;;;8.43;7.18;;;;;;;19.58;68.82;96492.44;5067340;28;20236;-58
2023/07/03 00:37:17;;;;;;;8.50;6.60;;;;;;;19.56;68.04;96487.25;5057757;28;20214;-58
2023/07/03 00:39:45;;;;;;;10.27;7.05;;;;;;;19.54;67.25;96483.97;5059796;28;20233;-58
2023/07/03 00:42:12;;;;;;;10.02;6.55;;;;;;;19.55;68.76;96490.16;5067407;28;20234;-59
2023/07/03 00:44:39;;;;;;;8.68;6.82;;;;;;;19.54;68.87;96477.78;5070183;28;20187;-60
2023/07/03 00:47:08;;;;;;;9.77;6.53;;;;;;;19.53;69.79;96481.47;5052629;28;20639;-58
2023/07/03 00:49:35;;;;;;;9.75;6.63;;;;;;;19.50;68.50;96490.75;5062798;28;20218;-58
2023/07/03 00:52:03;;;;;;;11.32;7.32;;;;;;;19.46;67.72;96489.50;5055830;28;20223;-58
2023/07/03 00:54:30;;;;;;;8.60;6.72;;;;;;;19.51;68.67;96486.22;5044398;28;20219;-58
2023/07/03 00:56:56;;;;;;;9.27;6.78;;;;;;;19.43;68.23;96486.41;5051835;28;20214;-58
2023/07/03 00:59:23;;;;;;;12.32;7.20;;;;;;;19.44;68.45;96483.53;5058059;28;20218;-58
2023/07/03 01:01:53;;;;;;;10.90;6.93;;;;;;;19.45;68.51;96485.16;5050479;28;20210;-59
2023/07/03 01:04:22;;;;;;;11.68;7.05;;;;;;;19.41;68.56;96483.94;5057584;28;20207;-59
2023/07/03 01:06:54;;;;;;;10.82;7.50;;;;;;;19.43;69.24;96484.56;5034839;28;20640;-59
2023/07/03 01:09:24;;;;;;;9.10;6.65;;;;;;;19.38;69.60;96484.28;5056044;28;20218;-59
2023/07/03 01:11:52;;;;;;;10.10;6.57;;;;;;;19.37;69.99;96482.66;5048183;28;20223;-59
2023/07/03 01:14:22;;;;;;;10.32;7.07;;;;;;;19.29;70.45;96483.66;5044134;28;20204;-59
2023/07/03 01:16:49;;;;;;;13.88;7.65;;;;;;;19.25;70.42;96485.09;5035223;28;20207;-59
2023/07/03 01:19:29;;;;;;;9.88;7.00;;;;;;;19.30;70.93;96488.00;5065717;28;20217;-59
2023/07/03 01:21:59;;;;;;;9.77;6.72;;;;;;;19.29;71.48;96491.69;5068093;28;20202;-58
2023/07/03 01:24:40;;;;;;;8.90;6.78;;;;;;;19.23;72.28;96489.84;5074443;28;20311;-59
2023/07/03 01:27:08;;;;;;;12.40;7.20;;;;;;;19.22;71.93;96495.38;5073316;28;20532;-58
2023/07/03 01:29:34;;;;;;;10.25;7.03;;;;;;;19.19;72.22;96490.44;5062900;28;20237;-59
2023/07/03 01:32:04;;;;;;;9.35;6.57;;;;;;;19.13;71.54;96496.59;5074188;28;20238;-58
2023/07/03 01:34:31;;;;;;;7.88;6.47;;;;;;;19.11;71.66;96498.63;5065503;28;20628;-58
2023/07/03 01:36:58;;;;;;;10.18;6.82;;;;;;;19.05;71.02;96489.53;5041141;28;20309;-59
2023/07/03 01:39:26;;;;;;;9.85;6.95;;;;;;;19.09;71.14;96500.69;5045753;28;20211;-59
2023/07/03 01:41:56;;;;;;;9.13;7.40;;;;;;;19.08;71.51;96486.47;5062034;28;20195;-59
2023/07/03 01:44:25;;;;;;;11.70;7.30;;;;;;;19.08;72.90;96493.66;5056557;28;20550;-59
2023/07/03 01:46:53;;;;;;;11.88;6.72;;;;;;;19.05;72.37;96488.72;5039436;28;20195;-58
2023/07/03 01:49:19;;;;;;;10.13;6.85;;;;;;;18.97;72.89;96486.19;5034674;28;20222;-59
2023/07/03 01:51:49;;;;;;;9.43;7.18;;;;;;;18.94;73.61;96486.59;5066662;28;20538;-59
2023/07/03 01:54:21;;;;;;;9.57;6.95;;;;;;;18.98;74.43;96482.50;5059129;28;20238;-59
2023/07/03 01:56:50;;;;;;;8.63;6.47;;;;;;;19.00;74.57;96483.09;5034239;28;20211;-58
2023/07/03 01:59:21;;;;;;;11.30;7.00;;;;;;;18.94;74.78;96475.88;5048504;28;20243;-58
2023/07/03 02:01:50;;;;;;;9.43;6.53;;;;;;;18.94;78.74;96482.06;5065894;28;20195;-59
2023/07/03 02:04:25;;;;;;;10.23;7.18;;;;;;;18.92;78.90;96476.06;5059644;28;20226;-59
2023/07/03 02:06:53;;;;;;;12.00;6.50;;;;;;;18.88;80.23;96478.31;5058237;28;20537;-59
2023/07/03 02:09:21;;;;;;;10.55;6.95;;;;;;;18.86;80.71;96485.72;5073835;28;20215;-58
2023/07/03 02:11:48;;;;;;;10.88;6.85;;;;;;;18.84;81.18;96478.94;5069619;28;20223;-60
2023/07/03 02:14:15;;;;;;;8.80;6.30;;;;;;;18.81;81.68;96482.00;5087778;28;20203;-59
2023/07/03 02:16:46;;;;;;;8.38;7.07;;;;;;;18.82;80.58;96480.97;5076590;28;20217;-59
2023/07/03 02:19:14;;;;;;;11.40;6.72;;;;;;;18.77;82.31;96481.56;5076130;28;20207;-59
2023/07/03 02:21:44;;;;;;;10.40;7.05;;;;;;;18.70;84.38;96480.72;5073928;28;20210;-58
2023/07/03 02:24:11;;;;;;;8.13;6.50;;;;;;;18.65;84.59;96476.94;5073260;28;20262;-59
2023/07/03 02:26:38;;;;;;;10.13;6.50;;;;;;;18.64;85.80;96478.81;5061164;28;20219;-59
2023/07/03 02:29:05;;;;;;;10.35;6.78;;;;;;;18.67;85.04;96483.75;5060325;28;20211;-59
2023/07/03 02:31:31;;;;;;;7.53;6.47;;;;;;;18.65;85.98;96483.16;5076412;28;20223;-59
2023/07/03 02:33:59;;;;;;;9.95;7.22;;;;;;;18.64;85.76;96484.16;5081336;28;20216;-59
2023/07/03 02:36:29;;;;;;;9.98;6.90;;;;;;;18.63;84.09;96487.88;5093426;28;20213;-59
2023/07/03 02:38:56;;;;;;;8.27;6.82;;;;;;;18.63;84.53;96485.19;5061253;28;20214;-59
2023/07/03 02:41:23;;;;;;;7.82;5.93;;;;;;;18.58;86.92;96490.31;5057949;28;20207;-59
2023/07/03 02:43:49;;;;;;;10.05;6.35;;;;;;;18.58;86.57;96484.13;5069978;28;20215;-59
2023/07/03 02:46:16;;;;;;;11.43;6.97;;;;;;;18.54;85.82;96478.31;5046659;28;20246;-58
2023/07/03 02:48:43;;;;;;;9.70;6.95;;;;;;;18.52;86.01;96483.06;5037647;28;20215;-59
2023/07/03 02:51:11;;;;;;;13.85;6.85;;;;;;;18.50;86.66;96479.72;5065042;28;20206;-58
2023/07/03 02:53:40;;;;;;;11.38;6.90;;;;;;;18.52;84.58;96484.91;5067357;28;20200;-59
2023/07/03 02:56:07;;;;;;;8.43;6.13;;;;;;;18.53;84.01;96490.06;5063390;28;20294;-59
2023/07/03 02:58:33;;;;;;;10.05;6.82;;;;;;;18.54;85.58;96490.88;5073861;28;20206;-58
2023/07/03 03:01:01;;;;;;;10.43;7.25;;;;;;;18.48;85.48;96492.47;5065162;28;20202;-59
2023/07/03 03:03:27;;;;;;;10.75;7.03;;;;;;;18.50;84.51;96487.75;5051642;28;20216;-59
2023/07/03 03:05:55;;;;;;;9.35;6.50;;;;;;;18.50;86.64;96500.31;5050767;28;20199;-58
2023/07/03 03:08:23;;;;;;;9.65;6.55;;;;;;;18.43;87.38;96500.25;5045597;28;20215;-59
2023/07/03 03:10:52;;;;;;;11.10;6.25;;;;;;;18.42;87.47;96497.78;5053855;28;20636;-58
2023/07/03 03:13:19;;;;;;;10.27;6.35;;;;;;;18.34;89.17;96490.72;5046682;28;20235;-58
2023/07/03 03:15:45;;;;;;;9.45;6.45;;;;;;;18.31;89.32;96496.47;5058698;28;20658;-58
2023/07/03 03:18:14;;;;;;;7.88;6.20;;;;;;;18.32;89.01;96492.75;5054809;28;20210;-58
2023/07/03 03:20:41;;;;;;;7.85;6.60;;;;;;;18.30;88.13;96494.81;5058350;28;20214;-58
2023/07/03 03:23:07;;;;;;;12.00;7.00;;;;;;;18.25;91.38;96491.88;5036262;28;20588;-59
2023/07/03 03:25:35;;;;;;;12.50;6.45;;;;;;;18.28;91.08;96486.16;5066434;28;20210;-58
2023/07/03 03:28:05;;;;;;;7.38;6.20;;;;;;;18.24;93.44;96490.25;5046336;28;20221;-59
2023/07/03 03:30:33;;;;;;;8.70;6.30;;;;;;;18.18;94.35;96491.00;5041711;28;20271;-59
2023/07/03 03:33:00;;;;;;;9.40;6.53;;;;;;;18.18;93.38;96499.88;5046135;28;20233;-58
2023/07/03 03:35:27;;;;;;;8.15;6.63;;;;;;;18.14;91.07;96495.13;5066866;28;20203;-59
2023/07/03 03:37:54;;;;;;;11.30;6.80;;;;;;;18.20;92.19;96488.97;5054442;28;20211;-60
2023/07/03 03:40:20;;;;;;;9.73;6.30;;;;;;;18.20;91.41;96488.97;5042680;28;20273;-59
2023/07/03 03:42:48;;;;;;;8.73;6.45;;;;;;;18.24;89.42;96488.41;5045652;28;20207;-58
2023/07/03 03:45:15;;;;;;;8.30;6.65;;;;;;;18.24;89.09;96492.94;5049958;28;20208;-59
2023/07/03 03:47:41;;;;;;;10.52;6.90;;;;;;;18.24;89.36;96490.25;5041464;28;20212;-59
2023/07/03 03:50:09;;;;;;;10.65;6.97;;;;;;;18.20;89.53;96489.81;5048009;28;20206;-58
2023/07/03 03:52:36;;;;;;;9.18;6.38;;;;;;;18.16;89.23;96488.53;5062175;28;20292;-59
2023/07/03 03:55:03;;;;;;;8.32;6.55;;;;;;;18.13;89.02;96494.28;5054022;28;20290;-60
2023/07/03 03:57:29;;;;;;;9.13;6.80;;;;;;;18.08;92.04;96496.69;5062017;28;20210;-59
2023/07/03 03:59:59;;;;;;;11.23;7.25;;;;;;;18.05;94.01;96497.09;5064537;28;20212;-59
2023/07/03 04:02:26;;;;;;;9.00;6.63;;;;;;;18.09;94.81;96502.88;5068036;28;20197;-59
2023/07/03 04:04:52;;;;;;;9.55;6.38;;;;;;;18.10;92.48;96502.69;5053170;28;20620;-58
2023/07/03 04:07:19;;;;;;;9.38;6.25;;;;;;;18.16;92.57;96495.72;5042231;28;20637;-58
2023/07/03 04:09:46;;;;;;;8.07;6.80;;;;;;;18.16;91.78;96504.59;5049312;28;20303;-58
2023/07/03 04:12:12;;;;;;;8.07;5.93;;;;;;;18.22;91.67;96502.97;5041949;28;20238;-58
2023/07/03 04:14:39;;;;;;;7.97;7.07;;;;;;;18.24;92.23;96495.59;5035130;28;20648;-58
2023/07/03 04:17:08;;;;;;;9.75;6.78;;;;;;;18.26;90.76;96498.91;5049924;28;20229;-59
2023/07/03 04:19:36;;;;;;;8.85;6.72;;;;;;;18.25;90.94;96505.25;5056122;28;20200;-59
2023/07/03 04:22:03;;;;;;;11.60;7.15;;;;;;;18.28;89.87;96510.25;5066510;28;20298;-60
2023/07/03 04:24:29;;;;;;;9.90;6.30;;;;;;;18.28;89.68;96510.25;5071605;28;20246;-59
2023/07/03 04:26:56;;;;;;;8.77;6.13;;;;;;;18.26;90.33;96509.59;5074655;28;20297;-59
2023/07/03 04:29:25;;;;;;;11.70;7.03;;;;;;;18.22;89.82;96513.69;5046860;28;20223;-59
2023/07/03 04:31:51;;;;;;;10.40;7.30;;;;;;;18.10;89.81;96517.94;5052458;28;20211;-59
2023/07/03 04:34:20;;;;;;;9.32;6.72;;;;;;;18.04;89.54;96519.50;5054938;28;20199;-58
2023/07/03 04:36:48;;;;;;;10.52;7.18;;;;;;;17.94;89.68;96520.84;5056321;28;20221;-59
2023/07/03 04:39:14;;;;;;;12.65;6.72;;;;;;;17.97;90.12;96515.09;5046473;28;20525;-59
2023/07/03 04:41:40;;;;;;;10.10;7.18;;;;;;;18.00;92.64;96514.72;5050295;28;20206;-59
2023/07/03 04:44:12;;;;;;;8.82;6.80;;;;;;;17.92;91.81;96508.47;5035962;28;20207;-59
2023/07/03 04:46:38;;;;;;;10.10;7.00;;;;;;;17.92;89.36;96517.56;5042397;28;20207;-58
2023/07/03 04:49:05;;;;;;;8.70;6.35;;;;;;;17.97;94.03;96515.94;5058521;28;20229;-59
2023/07/03 04:51:33;;;;;;;8.82;6.85;;;;;;;17.96;96.02;96516.94;5057077;28;20211;-59
2023/07/03 04:54:00;;;;;;;10.90;6.78;;;;;;;17.99;96.20;96519.28;5048127;28;20226;-58
2023/07/03 04:56:27;;;;;;;10.00;6.93;;;;;;;18.01;94.42;96517.22;5056813;28;20536;-59
2023/07/03 04:58:54;;;;;;;10.10;7.10;;;;;;;18.00;94.41;96520.91;5074645;28;20333;-59
2023/07/03 05:01:20;;;;;;;12.68;6.68;;;;;;;18.02;98.91;96518.06;5056831;28;20199;-58
2023/07/03 05:03:47;;;;;;;9.15;6.72;;;;;;;18.00;100.00;96517.41;5066248;28;20283;-59
2023/07/03 05:06:16;;;;;;;9.60;6.75;;;;;;;18.06;99.37;96522.84;5064493;28;20206;-59
2023/07/03 05:08:48;;;;;;;10.20;6.85;;;;;;;18.10;100.00;96525.94;5078721;28;20233;-59
2023/07/03 05:11:14;;;;;;;9.75;6.85;;;;;;;18.10;98.04;96517.94;5085024;28;20214;-59
2023/07/03 05:13:41;;;;;;;9.50;6.32;;;;;;;18.13;96.21;96520.22;5060253;28;20223;-58
2023/07/03 05:16:09;;;;;;;9.13;7.32;;;;;;;18.16;95.88;96525.19;5052775;28;20506;-59
2023/07/03 05:18:35;;;;;;;10.13;7.03;;;;;;;18.17;94.77;96526.84;5042682;28;20559;-58
2023/07/03 05:21:06;;;;;;;9.13;6.80;;;;;;;18.17;94.66;96527.66;5069473;28;20218;-57
2023/07/03 05:23:32;;;;;;;10.30;7.00;;;;;;;18.20;95.29;96527.28;5042124;28;20246;-58
2023/07/03 05:26:00;;;;;;;10.80;7.15;;;;;;;18.25;95.56;96518.66;5047896;28;20663;-58
2023/07/03 05:28:26;;;;;;;9.27;6.88;;;;;;;18.29;98.23;96531.47;5062494;28;20213;-58
2023/07/03 05:30:59;;;;;;;9.07;6.68;;;;;;;18.36;96.77;96537.69;5041420;28;20207;-58
2023/07/03 05:33:29;;;;;;;8.80;7.00;;;;;;;18.44;98.53;96527.88;5054778;28;20222;-57
2023/07/03 05:36:00;;;;;;;10.75;7.35;;;;;;;18.46;98.52;96528.53;5068003;28;20206;-58
2023/07/03 05:38:27;;;;;;;9.45;6.82;;;;;;;18.52;98.65;96539.31;5061586;28;20269;-59
2023/07/03 05:40:54;;;;;;;9.52;6.85;;;;;;;18.58;99.40;96541.19;5070262;28;20207;-58
2023/07/03 05:43:25;;;;;;;8.93;7.07;;;;;;;18.58;95.57;96537.69;5070978;28;20230;-61
2023/07/03 05:45:53;;;;;;;9.65;6.75;;;;;;;18.64;94.89;96540.41;5057585;28;20612;-58
2023/07/03 05:48:21;;;;;;;7.82;6.47;;;;;;;18.68;95.46;96541.69;5054662;28;20558;-58
2023/07/03 05:50:49;;;;;;;9.07;7.13;;;;;;;18.73;92.65;96544.59;5067100;28;20211;-58
2023/07/03 05:53:16;;;;;;;9.63;6.78;;;;;;;18.79;91.43;96554.53;5063086;28;20242;-58
2023/07/03 05:55:45;;;;;;;10.40;7.13;;;;;;;18.84;90.01;96556.63;5070168;28;20550;-63
2023/07/03 05:58:12;;;;;;;8.98;7.50;;;;;;;18.84;85.09;96562.81;5077705;28;20373;-59
2023/07/03 06:00:40;;;;;;;8.48;6.75;;;;;;;18.89;85.38;96560.34;5066140;28;20570;-59
2023/07/03 06:03:10;;;;;;;7.93;6.53;;;;;;;18.95;85.94;96552.56;5050905;28;20212;-58
2023/07/03 06:05:37;;;;;;;7.90;6.55;;;;;;;19.01;86.36;96557.97;5050314;28;20202;-59
2023/07/03 06:08:04;;;;;;;8.88;6.95;;;;;;;19.07;90.08;96559.03;5051082;28;20213;-58
2023/07/03 06:10:31;;;;;;;12.57;7.20;;;;;;;19.09;86.16;96559.66;5077910;28;20210;-59
2023/07/03 06:12:57;;;;;;;10.02;6.93;;;;;;;19.15;87.65;96559.69;5064473;28;20226;-59
2023/07/03 06:15:24;;;;;;;8.50;6.90;;;;;;;19.12;85.00;96556.59;5064833;28;20211;-59
2023/07/03 06:17:52;;;;;;;10.95;7.00;;;;;;;19.18;84.34;96569.19;5077666;28;20627;-58
2023/07/03 06:20:20;;;;;;;9.50;7.30;;;;;;;19.22;85.35;96560.56;5077430;28;20655;-59
2023/07/03 06:22:48;;;;;;;8.50;6.65;;;;;;;19.24;82.46;96563.84;5057212;28;20230;-59
2023/07/03 06:25:14;;;;;;;10.77;6.85;;;;;;;19.29;82.89;96566.78;5044446;28;20219;-58
2023/07/03 06:27:41;;;;;;;7.88;7.03;;;;;;;19.38;83.50;96559.38;5064585;28;20245;-59
2023/07/03 06:30:08;;;;;;;9.65;7.65;;;;;;;19.33;80.33;96565.34;5062122;28;20207;-59
2023/07/03 06:32:36;;;;;;;9.73;7.05;;;;;;;19.33;79.63;96567.22;5037421;28;20262;-59
2023/07/03 06:35:05;;;;;;;9.35;7.20;;;;;;;19.43;80.42;96565.00;5066310;28;20221;-59
2023/07/03 06:37:34;;;;;;;8.30;6.57;;;;;;;19.55;81.34;96565.28;5070535;28;20211;-59
2023/07/03 06:40:00;;;;;;;7.47;6.70;;;;;;;19.65;82.55;96566.56;5043402;28;20295;-59
2023/07/03 06:42:27;;;;;;;8.98;6.95;;;;;;;19.70;82.10;96556.03;5047527;28;20215;-59
2023/07/03 06:44:56;;;;;;;8.05;6.85;;;;;;;19.76;81.69;96571.34;5038875;28;20269;-59
2023/07/03 06:47:22;;;;;;;10.02;6.70;;;;;;;19.82;81.67;96567.84;5045729;28;20587;-59
2023/07/03 06:49:49;;;;;;;8.90;6.68;;;;;;;19.88;81.60;96568.88;5043908;28;20347;-59
2023/07/03 06:52:16;;;;;;;11.23;7.47;;;;;;;19.87;78.75;96570.72;5067582;28;20214;-59
2023/07/03 06:54:43;;;;;;;8.85;6.50;;;;;;;19.91;78.41;96573.03;5054662;28;20240;-59
2023/07/03 06:57:12;;;;;;;10.45;6.90;;;;;;;19.86;75.13;96571.78;5038562;28;20640;-59
2023/07/03 06:59:40;;;;;;;8.68;6.68;;;;;;;19.87;75.67;96568.03;5071666;28;20293;-59
2023/07/03 07:02:08;;;;;;;9.75;7.15;;;;;;;20.06;76.06;96579.03;5077628;28;20206;-59
2023/07/03 07:04:35;;;;;;;12.00;7.13;;;;;;;20.14;73.79;96568.09;5063300;28;20202;-59
2023/07/03 07:07:02;;;;;;;10.70;6.88;;;;;;;20.28;75.17;96573.31;5066719;28;20207;-59
2023/07/03 07:09:29;;;;;;;13.90;6.53;;;;;;;20.16;69.18;96568.72;5044254;28;20203;-58
2023/07/03 07:11:57;;;;;;;9.65;6.55;;;;;;;20.04;68.08;96573.03;5056631;28;20591;-59
2023/07/03 07:14:23;;;;;;;11.38;6.53;;;;;;;19.84;67.11;96576.50;5043108;28;20223;-60
2023/07/03 07:16:50;;;;;;;11.05;6.80;;;;;;;19.83;68.27;96580.22;5044482;28;20212;-56
2023/07/03 07:19:18;;;;;;;9.35;6.25;;;;;;;19.79;67.71;96581.66;5042138;28;20729;-57
2023/07/03 07:21:45;;;;;;;12.20;6.53;;;;;;;19.85;68.30;96580.00;5067210;28;20241;-58
2023/07/03 07:24:17;;;;;;;12.00;6.38;;;;;;;19.96;69.48;96575.91;5070773;28;20234;-58
2023/07/03 07:26:45;;;;;;;11.15;7.03;;;;;;;20.03;68.72;96574.06;5074963;28;20207;-59
2023/07/03 07:29:11;;;;;;;12.18;6.38;;;;;;;20.09;69.85;96571.38;5057922;28;20269;-58
2023/07/03 07:31:38;;;;;;;11.65;6.55;;;;;;;20.09;66.88;96566.03;5050316;28;20207;-59
2023/07/03 07:34:06;;;;;;;11.00;6.57;;;;;;;20.12;67.47;96565.59;5072974;28;20230;-59
2023/07/03 07:36:33;;;;;;;11.48;6.40;;;;;;;20.09;67.36;96557.13;5064167;28;20207;-59
2023/07/03 07:39:01;;;;;;;7.15;5.85;;;;;;;20.23;68.14;96561.50;5070091;28;20210;-60
2023/07/03 07:41:28;;;;;;;9.52;6.32;;;;;;;20.26;68.32;96556.53;5064275;28;20576;-59
2023/07/03 07:43:58;;;;;;;12.02;6.15;;;;;;;20.33;67.61;96564.66;5043160;28;20203;-59
2023/07/03 07:46:28;;;;;;;10.85;5.95;;;;;;;20.27;65.00;96560.06;5046926;28;20620;-59
2023/07/03 07:48:55;;;;;;;10.40;6.50;;;;;;;20.38;66.29;96561.34;5056820;28;20199;-59
2023/07/03 07:51:22;;;;;;;9.38;6.47;;;;;;;20.39;65.50;96557.63;5056783;28;20207;-61
2023/07/03 07:53:48;;;;;;;9.55;5.95;;;;;;;20.51;68.39;96556.78;5051379;28;20235;-59
2023/07/03 07:56:15;;;;;;;10.57;6.43;;;;;;;20.57;66.46;96557.84;5052389;28;20203;-59
2023/07/03 07:58:41;;;;;;;9.10;6.05;;;;;;;20.62;66.27;96564.22;5055697;28;20206;-59
2023/07/03 08:01:14;;;;;;;8.77;6.43;;;;;;;20.65;65.51;96550.38;5053312;28;20636;-58
2023/07/03 08:03:42;;;;;;;10.48;6.30;;;;;;;20.62;66.73;96556.16;5046216;28;20210;-59
2023/07/03 08:06:09;;;;;;;7.15;5.90;;;;;;;20.72;67.37;96553.91;5069358;28;20219;-59
2023/07/03 08:08:36;;;;;;;12.95;6.60;;;;;;;20.75;64.50;96553.50;5045504;28;20702;-59
2023/07/03 08:11:06;;;;;;;10.15;6.72;;;;;;;20.81;64.98;96552.66;5070497;28;20248;-59
2023/07/03 08:13:34;;;;;;;10.52;6.32;;;;;;;20.78;63.95;96558.44;5046754;28;20571;-58
2023/07/03 08:16:00;;;;;;;12.35;6.63;;;;;;;20.69;64.74;96548.13;5049421;28;20219;-59
2023/07/03 08:18:30;;;;;;;11.00;6.70;;;;;;;21.00;64.66;96552.81;5058406;28;20213;-58
2023/07/03 08:20:56;;;;;;;11.05;6.90;;;;;;;21.39;61.98;96546.53;5052780;28;20208;-59
2023/07/03 08:23:23;;;;;;;10.40;6.90;;;;;;;21.54;63.15;96547.91;5047216;28;20250;-59
2023/07/03 08:25:51;;;;;;;10.00;6.60;;;;;;;22.04;63.64;96545.38;5046774;28;20627;-58
2023/07/03 08:28:17;;;;;;;10.48;7.00;;;;;;;22.33;62.72;96547.47;5075093;28;20662;-59
2023/07/03 08:30:44;;;;;;;11.82;6.63;;;;;;;22.85;62.08;96534.63;5062741;28;20214;-60
2023/07/03 08:33:10;;;;;;;12.20;6.80;;;;;;;23.31;60.83;96541.16;5060595;28;20210;-60
2023/07/03 08:35:38;;;;;;;10.15;7.22;;;;;;;23.09;60.17;96539.16;5061599;28;20207;-60
2023/07/03 08:38:04;;;;;;;9.68;6.57;;;;;;;23.27;60.80;96545.38;5055164;28;20215;-60
2023/07/03 08:40:31;;;;;;;8.05;6.22;;;;;;;23.30;61.05;96544.09;5060365;28;20224;-60
2023/07/03 08:42:59;;;;;;;9.82;6.32;;;;;;;23.26;60.18;96542.91;5070822;28;20195;-60
2023/07/03 08:45:31;;;;;;;9.52;6.60;;;;;;;23.24;60.74;96536.88;5051446;28;20658;-60
2023/07/03 08:47:59;;;;;;;7.07;6.05;;;;;;;23.20;62.16;96543.81;5050522;28;20218;-61
2023/07/03 08:50:26;;;;;;;9.43;6.78;;;;;;;23.15;61.50;96543.66;5052660;28;20222;-61
2023/07/03 08:52:57;;;;;;;10.43;6.78;;;;;;;22.93;61.03;96539.72;5054845;28;20213;-59
2023/07/03 08:55:26;;;;;;;11.02;7.05;;;;;;;22.63;61.42;96543.09;5052867;28;20238;-59
2023/07/03 08:57:52;;;;;;;11.10;7.72;;;;;;;22.54;62.21;96549.78;5051364;28;20204;-59
2023/07/03 09:00:21;;;;;;;10.88;6.75;;;;;;;22.44;61.23;96548.63;5056892;28;20531;-60
2023/07/03 09:02:53;;;;;;;7.68;6.15;;;;;;;22.30;62.26;96547.91;5055038;28;20213;-60
2023/07/03 09:05:31;;;;;;;9.40;6.70;;;;;;;22.60;64.83;96542.72;5044804;28;20203;-61
2023/07/03 09:08:01;;;;;;;11.43;6.90;;;;;;;22.68;62.45;96548.66;5059242;28;20202;-60
2023/07/03 09:10:33;;;;;;;9.65;6.75;;;;;;;22.85;61.22;96542.72;5075103;28;20210;-61
2023/07/03 09:13:05;;;;;;;9.93;7.05;;;;;;;23.19;60.19;96537.59;5071518;28;20599;-59
2023/07/03 09:15:35;;;;;;;9.43;6.95;;;;;;;23.31;60.03;96540.38;5057712;28;20222;-59
2023/07/03 09:18:03;;;;;;;8.90;7.00;;;;;;;23.20;60.34;96535.72;5054195;28;20226;-58
2023/07/03 09:20:30;;;;;;;7.57;6.15;;;;;;;23.01;59.95;96529.47;5054918;28;20195;-59
2023/07/03 09:23:03;;;;;;;10.20;6.80;;;;;;;22.94;62.16;96533.28;5055668;28;20207;-60
2023/07/03 09:25:32;;;;;;;9.40;6.72;;;;;;;22.72;62.15;96539.09;5054838;28;20207;-59
2023/07/03 09:28:00;;;;;;;12.13;7.50;;;;;;;22.94;62.48;96534.13;5066800;28;20206;-61
2023/07/03 09:30:28;;;;;;;10.40;9.13;;;;;;;23.06;62.61;96531.50;5058663;28;20650;-58
2023/07/03 09:32:55;;;;;;;9.02;6.88;;;;;;;23.04;62.27;96537.13;5065414;28;20215;-61
2023/07/03 09:35:22;;;;;;;10.88;7.40;;;;;;;23.23;62.47;96527.16;5069701;28;20286;-62
2023/07/03 09:37:51;;;;;;;10.23;6.93;;;;;;;23.49;62.85;96526.88;5060631;28;20218;-60
2023/07/03 09:40:24;;;;;;;8.23;6.18;;;;;;;23.39;60.68;96531.94;5055938;28;20237;-59
2023/07/03 09:42:50;;;;;;;11.85;6.45;;;;;;;23.51;62.17;96530.19;5054722;28;21574;-59
2023/07/03 09:45:20;;;;;;;10.65;7.70;;;;;;;23.66;61.79;96533.31;5054762;28;20210;-58
2023/07/03 09:47:48;;;;;;;10.70;6.80;;;;;;;23.94;59.52;96534.59;5054291;28;20639;-59
2023/07/03 09:50:17;;;;;;;10.05;6.50;;;;;;;24.04;57.67;96538.41;5054538;28;20207;-59
2023/07/03 09:52:46;;;;;;;12.45;7.32;;;;;;;24.25;61.61;96532.50;5055255;28;20207;-58
2023/07/03 09:55:13;;;;;;;9.05;7.07;;;;;;;24.49;58.71;96538.78;5054524;28;20222;-59
2023/07/03 09:57:42;;;;;;;11.02;6.97;;;;;;;24.63;57.42;96531.25;5054400;28;20207;-57
2023/07/03 10:00:14;;;;;;;8.60;6.97;;;;;;;24.89;58.62;96533.56;5054375;28;20203;-58
2023/07/03 10:02:41;;;;;;;11.15;7.78;;;;;;;25.08;57.11;96526.94;5054513;28;20199;-59
2023/07/03 10:05:07;;;;;;;11.88;7.53;;;;;;;25.24;54.91;96531.63;5054875;28;20192;-59
2023/07/03 10:07:40;;;;;;;11.98;7.30;;;;;;;25.13;55.08;96521.66;5054420;28;20221;-58
2023/07/03 10:10:10;;;;;;;10.25;6.80;;;;;;;25.21;56.59;96536.69;5054270;28;20201;-59
2023/07/03 10:12:40;;;;;;;10.85;7.15;;;;;;;25.34;56.74;96531.03;5053841;28;20616;-58
2023/07/03 10:15:14;;;;;;;8.82;7.03;;;;;;;25.27;57.83;96533.88;5054438;28;21515;-59
2023/07/03 10:17:46;;;;;;;8.65;7.22;;;;;;;25.19;55.62;96536.09;5055171;28;20195;-58
2023/07/03 10:20:18;;;;;;;11.90;7.40;;;;;;;25.15;55.42;96540.38;5054765;28;20214;-59
2023/07/03 10:22:45;;;;;;;8.73;6.43;;;;;;;24.78;54.19;96532.47;5053616;28;21461;-59
2023/07/03 10:25:17;;;;;;;9.00;6.97;;;;;;;24.61;56.32;96536.91;5053296;28;20208;-59
2023/07/03 10:27:46;;;;;;;9.40;6.65;;;;;;;24.46;56.43;96533.84;5054120;28;20203;-60
2023/07/03 10:30:19;;;;;;;9.82;6.85;;;;;;;24.51;58.29;96533.97;5054608;28;20212;-60
2023/07/03 10:32:49;;;;;;;7.95;6.85;;;;;;;24.72;58.46;96540.69;5054092;28;20203;-58
2023/07/03 10:35:21;;;;;;;7.85;6.75;;;;;;;25.01;57.76;96534.34;5054327;28;20223;-59
2023/07/03 10:37:52;;;;;;;10.20;7.07;;;;;;;25.36;57.21;96528.91;5054198;28;20199;-59
2023/07/03 10:40:23;;;;;;;8.15;6.57;;;;;;;25.74;53.90;96523.78;5053906;28;20210;-60
2023/07/03 10:42:54;;;;;;;8.93;6.88;;;;;;;25.83;54.14;96528.78;5054698;28;20199;-59
2023/07/03 10:45:22;;;;;;;8.45;6.28;;;;;;;26.03;55.37;96524.59;5054643;28;20544;-60
2023/07/03 10:47:54;;;;;;;8.73;6.75;;;;;;;26.10;54.99;96527.16;5054537;28;20203;-59
2023/07/03 10:50:23;;;;;;;9.23;6.60;;;;;;;26.17;54.45;96517.00;5054620;28;20202;-60
2023/07/03 10:52:54;;;;;;;7.80;6.88;;;;;;;26.50;54.86;96514.31;5054495;28;20571;-60
2023/07/03 10:55:25;;;;;;;10.65;7.65;;;;;;;26.73;56.94;96513.34;5055197;28;20208;-59
2023/07/03 10:57:59;;;;;;;7.78;6.90;;;;;;;26.52;52.11;96517.63;5054071;28;20207;-58
2023/07/03 11:00:33;;;;;;;8.70;6.85;;;;;;;26.38;53.64;96513.59;5054444;28;20303;-59
2023/07/03 11:03:07;;;;;;;8.73;7.03;;;;;;;26.53;51.28;96513.03;5054359;28;20565;-59
2023/07/03 11:05:37;;;;;;;8.00;6.82;;;;;;;26.40;56.88;96519.59;5054534;28;20195;-59
2023/07/03 11:08:10;;;;;;;8.15;6.70;;;;;;;26.12;54.05;96511.47;5054416;28;20293;-59
2023/07/03 11:10:39;;;;;;;8.82;6.68;;;;;;;25.40;54.27;96511.09;5054280;28;20203;-60
2023/07/03 11:13:12;;;;;;;8.00;6.70;;;;;;;25.32;55.89;96508.78;5053276;28;20211;-57
2023/07/03 11:15:46;;;;;;;8.30;6.18;;;;;;;25.41;56.38;96501.94;5054147;28;20231;-58
2023/07/03 11:18:26;;;;;;;7.15;6.43;;;;;;;25.70;54.31;96509.06;5053648;28;20218;-59
2023/07/03 11:20:59;;;;;;;7.88;6.32;;;;;;;25.67;54.82;96508.72;5054400;28;20298;-58
2023/07/03 11:23:30;;;;;;;7.75;6.93;;;;;;;25.92;56.74;96511.09;5054066;28;20242;-58
2023/07/03 11:26:02;;;;;;;12.88;8.43;;;;;;;25.93;55.75;96515.47;5053675;28;20873;-59
2023/07/03 11:28:34;;;;;;;10.00;7.03;;;;;;;25.60;54.80;96508.88;5053143;28;20701;-59
2023/07/03 11:31:04;;;;;;;9.30;7.30;;;;;;;25.59;55.97;96507.22;5054763;28;20212;-59
2023/07/03 11:33:31;;;;;;;10.35;7.60;;;;;;;25.73;56.98;96514.00;5053019;28;20215;-59